sensor_id;sensor_type;location;lat;lon;timestamp;P1;durP1;ratioP1;P2;durP2;ratioP2
58470;SDS011;44258;51.288;12.068;2022-09-09T00:01:37;3.17;;;1.42;;
58470;SDS011;44258;51.288;12.068;2022-09-09T00:04:15;2.40;;;1.20;;
58470;SDS011;44258;51.288;12.068;2022-09-09T00:06:51;3.17;;;1.50;;
58470;SDS011;44258;51.288;12.068;2022-09-09T00:09:29;4.75;;;1.58;;
58470;SDS011;44258;51.288;12.068;2022-09-09T00:12:04;2.63;;;1.60;;
58470;SDS011;44258;51.288;12.068;2022-09-09T00:14:39;4.03;;;1.65;;
58470;SDS011;44258;51.288;12.068;2022-09-09T00:17:14;5.72;;;1.80;;
58470;SDS011;44258;51.288;12.068;2022-09-09T00:19:53;2.97;;;1.48;;
58470;SDS011;44258;51.288;12.068;2022-09-09T00:22:27;3.40;;;1.40;;
58470;SDS011;44258;51.288;12.068;2022-09-09T00:24:57;5.35;;;1.45;;
58470;SDS011;44258;51.288;12.068;2022-09-09T00:27:36;3.60;;;1.30;;
58470;SDS011;44258;51.288;12.068;2022-09-09T00:30:13;1.67;;;1.10;;
58470;SDS011;44258;51.288;12.068;2022-09-09T00:32:45;2.92;;;1.13;;
58470;SDS011;44258;51.288;12.068;2022-09-09T00:35:17;2.85;;;1.58;;
58470;SDS011;44258;51.288;12.068;2022-09-09T00:37:50;3.42;;;1.50;;
58470;SDS011;44258;51.288;12.068;2022-09-09T00:40:22;3.70;;;1.55;;
58470;SDS011;44258;51.288;12.068;2022-09-09T00:42:54;2.83;;;1.48;;
58470;SDS011;44258;51.288;12.068;2022-09-09T00:45:42;4.68;;;1.58;;
58470;SDS011;44258;51.288;12.068;2022-09-09T00:48:35;4.80;;;1.50;;
58470;SDS011;44258;51.288;12.068;2022-09-09T00:51:13;4.97;;;1.40;;
58470;SDS011;44258;51.288;12.068;2022-09-09T00:53:55;3.80;;;1.77;;
58470;SDS011;44258;51.288;12.068;2022-09-09T00:56:37;3.25;;;1.70;;
58470;SDS011;44258;51.288;12.068;2022-09-09T00:59:15;5.33;;;1.90;;
58470;SDS011;44258;51.288;12.068;2022-09-09T01:01:51;3.17;;;1.50;;
58470;SDS011;44258;51.288;12.068;2022-09-09T01:04:23;3.83;;;1.52;;
58470;SDS011;44258;51.288;12.068;2022-09-09T01:06:58;3.55;;;1.58;;
58470;SDS011;44258;51.288;12.068;2022-09-09T01:09:32;2.47;;;1.60;;
58470;SDS011;44258;51.288;12.068;2022-09-09T01:12:09;3.67;;;1.52;;
58470;SDS011;44258;51.288;12.068;2022-09-09T01:14:42;3.40;;;1.50;;
58470;SDS011;44258;51.288;12.068;2022-09-09T01:17:14;2.58;;;1.60;;
58470;SDS011;44258;51.288;12.068;2022-09-09T01:19:54;2.05;;;1.27;;
58470;SDS011;44258;51.288;12.068;2022-09-09T01:22:30;2.88;;;1.55;;
58470;SDS011;44258;51.288;12.068;2022-09-09T01:25:13;4.43;;;1.65;;
58470;SDS011;44258;51.288;12.068;2022-09-09T01:27:50;3.08;;;1.50;;
58470;SDS011;44258;51.288;12.068;2022-09-09T01:30:21;3.13;;;1.52;;
58470;SDS011;44258;51.288;12.068;2022-09-09T01:32:49;6.75;;;1.65;;
58470;SDS011;44258;51.288;12.068;2022-09-09T01:35:19;5.95;;;1.85;;
58470;SDS011;44258;51.288;12.068;2022-09-09T01:40:30;3.55;;;1.73;;
58470;SDS011;44258;51.288;12.068;2022-09-09T01:42:59;4.55;;;1.80;;
58470;SDS011;44258;51.288;12.068;2022-09-09T01:45:26;4.85;;;1.73;;
58470;SDS011;44258;51.288;12.068;2022-09-09T01:47:53;2.83;;;1.80;;
58470;SDS011;44258;51.288;12.068;2022-09-09T01:50:20;3.00;;;1.77;;
58470;SDS011;44258;51.288;12.068;2022-09-09T01:52:48;4.50;;;1.80;;
58470;SDS011;44258;51.288;12.068;2022-09-09T01:55:19;3.63;;;1.80;;
58470;SDS011;44258;51.288;12.068;2022-09-09T01:57:55;4.32;;;1.90;;
58470;SDS011;44258;51.288;12.068;2022-09-09T02:00:38;3.35;;;1.70;;
58470;SDS011;44258;51.288;12.068;2022-09-09T02:03:12;4.15;;;1.80;;
58470;SDS011;44258;51.288;12.068;2022-09-09T02:05:49;5.68;;;2.10;;
58470;SDS011;44258;51.288;12.068;2022-09-09T02:08:26;5.55;;;1.70;;
58470;SDS011;44258;51.288;12.068;2022-09-09T02:10:59;3.45;;;1.80;;
58470;SDS011;44258;51.288;12.068;2022-09-09T02:13:33;3.97;;;2.05;;
58470;SDS011;44258;51.288;12.068;2022-09-09T02:16:03;2.85;;;1.70;;
58470;SDS011;44258;51.288;12.068;2022-09-09T02:18:35;6.60;;;1.73;;
58470;SDS011;44258;51.288;12.068;2022-09-09T02:21:06;3.63;;;1.70;;
58470;SDS011;44258;51.288;12.068;2022-09-09T02:23:35;5.10;;;1.90;;
58470;SDS011;44258;51.288;12.068;2022-09-09T02:26:04;3.92;;;1.65;;
58470;SDS011;44258;51.288;12.068;2022-09-09T02:28:35;5.20;;;1.70;;
58470;SDS011;44258;51.288;12.068;2022-09-09T02:31:05;4.78;;;1.80;;
58470;SDS011;44258;51.288;12.068;2022-09-09T02:33:33;5.18;;;1.90;;
58470;SDS011;44258;51.288;12.068;2022-09-09T02:36:05;4.95;;;2.00;;
58470;SDS011;44258;51.288;12.068;2022-09-09T02:38:36;4.50;;;1.80;;
58470;SDS011;44258;51.288;12.068;2022-09-09T02:41:06;5.40;;;1.85;;
58470;SDS011;44258;51.288;12.068;2022-09-09T02:43:35;2.88;;;1.60;;
58470;SDS011;44258;51.288;12.068;2022-09-09T02:46:03;6.03;;;1.70;;
58470;SDS011;44258;51.288;12.068;2022-09-09T02:48:44;4.72;;;1.98;;
58470;SDS011;44258;51.288;12.068;2022-09-09T02:53:52;6.05;;;2.00;;
58470;SDS011;44258;51.288;12.068;2022-09-09T02:56:26;4.03;;;1.88;;
58470;SDS011;44258;51.288;12.068;2022-09-09T02:59:02;4.00;;;1.98;;
58470;SDS011;44258;51.288;12.068;2022-09-09T03:01:30;4.95;;;1.83;;
58470;SDS011;44258;51.288;12.068;2022-09-09T03:03:56;5.80;;;2.25;;
58470;SDS011;44258;51.288;12.068;2022-09-09T03:06:23;7.55;;;2.40;;
58470;SDS011;44258;51.288;12.068;2022-09-09T03:08:50;5.13;;;2.40;;
58470;SDS011;44258;51.288;12.068;2022-09-09T03:11:17;5.43;;;1.88;;
58470;SDS011;44258;51.288;12.068;2022-09-09T03:13:44;5.90;;;2.05;;
58470;SDS011;44258;51.288;12.068;2022-09-09T03:16:12;4.28;;;1.92;;
58470;SDS011;44258;51.288;12.068;2022-09-09T03:18:40;4.75;;;1.90;;
58470;SDS011;44258;51.288;12.068;2022-09-09T03:21:07;4.90;;;2.17;;
58470;SDS011;44258;51.288;12.068;2022-09-09T03:23:34;5.90;;;2.10;;
58470;SDS011;44258;51.288;12.068;2022-09-09T03:26:01;4.72;;;2.20;;
58470;SDS011;44258;51.288;12.068;2022-09-09T03:28:28;3.22;;;1.70;;
58470;SDS011;44258;51.288;12.068;2022-09-09T03:30:58;4.30;;;1.80;;
58470;SDS011;44258;51.288;12.068;2022-09-09T03:33:26;4.50;;;2.00;;
58470;SDS011;44258;51.288;12.068;2022-09-09T03:35:54;5.05;;;2.25;;
58470;SDS011;44258;51.288;12.068;2022-09-09T03:38:22;3.90;;;2.08;;
58470;SDS011;44258;51.288;12.068;2022-09-09T03:40:49;5.05;;;2.13;;
58470;SDS011;44258;51.288;12.068;2022-09-09T03:43:18;3.97;;;2.10;;
58470;SDS011;44258;51.288;12.068;2022-09-09T03:45:46;4.03;;;1.65;;
58470;SDS011;44258;51.288;12.068;2022-09-09T03:48:14;4.82;;;2.00;;
58470;SDS011;44258;51.288;12.068;2022-09-09T03:50:45;7.40;;;2.00;;
58470;SDS011;44258;51.288;12.068;2022-09-09T03:53:12;4.97;;;1.92;;
58470;SDS011;44258;51.288;12.068;2022-09-09T03:55:40;4.95;;;1.88;;
58470;SDS011;44258;51.288;12.068;2022-09-09T03:58:10;6.05;;;2.20;;
58470;SDS011;44258;51.288;12.068;2022-09-09T04:00:38;3.33;;;1.80;;
58470;SDS011;44258;51.288;12.068;2022-09-09T04:03:07;4.32;;;1.70;;
58470;SDS011;44258;51.288;12.068;2022-09-09T04:05:34;3.50;;;1.98;;
58470;SDS011;44258;51.288;12.068;2022-09-09T04:08:06;3.35;;;1.80;;
58470;SDS011;44258;51.288;12.068;2022-09-09T04:10:33;5.03;;;1.95;;
58470;SDS011;44258;51.288;12.068;2022-09-09T04:13:01;4.28;;;1.65;;
58470;SDS011;44258;51.288;12.068;2022-09-09T04:15:27;4.25;;;1.92;;
58470;SDS011;44258;51.288;12.068;2022-09-09T04:17:54;3.85;;;1.52;;
58470;SDS011;44258;51.288;12.068;2022-09-09T04:20:21;2.88;;;1.60;;
58470;SDS011;44258;51.288;12.068;2022-09-09T04:22:48;3.72;;;1.80;;
58470;SDS011;44258;51.288;12.068;2022-09-09T04:25:16;5.82;;;1.80;;
58470;SDS011;44258;51.288;12.068;2022-09-09T04:27:42;3.20;;;1.48;;
58470;SDS011;44258;51.288;12.068;2022-09-09T04:30:09;3.20;;;1.55;;
58470;SDS011;44258;51.288;12.068;2022-09-09T04:32:37;4.75;;;1.65;;
58470;SDS011;44258;51.288;12.068;2022-09-09T04:35:03;3.90;;;1.77;;
58470;SDS011;44258;51.288;12.068;2022-09-09T04:37:30;4.40;;;1.83;;
58470;SDS011;44258;51.288;12.068;2022-09-09T04:39:57;3.92;;;1.90;;
58470;SDS011;44258;51.288;12.068;2022-09-09T04:42:29;3.97;;;1.60;;
58470;SDS011;44258;51.288;12.068;2022-09-09T04:44:55;3.50;;;1.55;;
58470;SDS011;44258;51.288;12.068;2022-09-09T04:47:22;3.10;;;1.40;;
58470;SDS011;44258;51.288;12.068;2022-09-09T04:49:48;3.47;;;1.48;;
58470;SDS011;44258;51.288;12.068;2022-09-09T04:52:15;4.18;;;1.77;;
58470;SDS011;44258;51.288;12.068;2022-09-09T04:54:43;5.25;;;1.63;;
58470;SDS011;44258;51.288;12.068;2022-09-09T04:57:11;3.88;;;1.77;;
58470;SDS011;44258;51.288;12.068;2022-09-09T04:59:38;5.80;;;1.67;;
58470;SDS011;44258;51.288;12.068;2022-09-09T05:02:05;4.00;;;1.80;;
58470;SDS011;44258;51.288;12.068;2022-09-09T05:04:32;5.88;;;1.50;;
58470;SDS011;44258;51.288;12.068;2022-09-09T05:06:58;3.30;;;1.50;;
58470;SDS011;44258;51.288;12.068;2022-09-09T05:09:25;2.35;;;1.25;;
58470;SDS011;44258;51.288;12.068;2022-09-09T05:11:51;3.10;;;1.30;;
58470;SDS011;44258;51.288;12.068;2022-09-09T05:14:18;4.75;;;1.65;;
58470;SDS011;44258;51.288;12.068;2022-09-09T05:16:46;3.42;;;1.40;;
58470;SDS011;44258;51.288;12.068;2022-09-09T05:19:14;4.03;;;1.50;;
58470;SDS011;44258;51.288;12.068;2022-09-09T05:21:44;5.95;;;1.35;;
58470;SDS011;44258;51.288;12.068;2022-09-09T05:24:10;4.30;;;1.40;;
58470;SDS011;44258;51.288;12.068;2022-09-09T05:26:37;3.05;;;1.50;;
58470;SDS011;44258;51.288;12.068;2022-09-09T05:29:03;2.78;;;1.20;;
58470;SDS011;44258;51.288;12.068;2022-09-09T05:31:31;3.28;;;1.30;;
58470;SDS011;44258;51.288;12.068;2022-09-09T05:33:59;4.25;;;1.33;;
58470;SDS011;44258;51.288;12.068;2022-09-09T05:36:25;5.43;;;1.42;;
58470;SDS011;44258;51.288;12.068;2022-09-09T05:38:52;2.78;;;1.27;;
58470;SDS011;44258;51.288;12.068;2022-09-09T05:41:19;2.38;;;1.27;;
58470;SDS011;44258;51.288;12.068;2022-09-09T05:43:48;2.75;;;1.30;;
58470;SDS011;44258;51.288;12.068;2022-09-09T05:46:15;2.38;;;1.27;;
58470;SDS011;44258;51.288;12.068;2022-09-09T05:48:43;3.17;;;1.38;;
58470;SDS011;44258;51.288;12.068;2022-09-09T05:51:14;4.55;;;1.35;;
58470;SDS011;44258;51.288;12.068;2022-09-09T05:53:42;4.82;;;1.50;;
58470;SDS011;44258;51.288;12.068;2022-09-09T05:56:10;2.88;;;1.30;;
58470;SDS011;44258;51.288;12.068;2022-09-09T05:58:39;3.30;;;1.48;;
58470;SDS011;44258;51.288;12.068;2022-09-09T06:01:09;2.95;;;1.30;;
58470;SDS011;44258;51.288;12.068;2022-09-09T06:03:39;3.65;;;1.67;;
58470;SDS011;44258;51.288;12.068;2022-09-09T06:06:09;3.17;;;1.40;;
58470;SDS011;44258;51.288;12.068;2022-09-09T06:08:39;2.88;;;1.33;;
58470;SDS011;44258;51.288;12.068;2022-09-09T06:11:09;3.88;;;1.50;;
58470;SDS011;44258;51.288;12.068;2022-09-09T06:13:38;3.63;;;1.40;;
58470;SDS011;44258;51.288;12.068;2022-09-09T06:16:05;5.80;;;1.60;;
58470;SDS011;44258;51.288;12.068;2022-09-09T06:18:34;3.88;;;1.60;;
58470;SDS011;44258;51.288;12.068;2022-09-09T06:21:01;2.20;;;1.08;;
58470;SDS011;44258;51.288;12.068;2022-09-09T06:23:30;3.42;;;1.30;;
58470;SDS011;44258;51.288;12.068;2022-09-09T06:26:02;4.95;;;1.50;;
58470;SDS011;44258;51.288;12.068;2022-09-09T06:28:30;2.70;;;1.15;;
58470;SDS011;44258;51.288;12.068;2022-09-09T06:30:58;3.72;;;1.30;;
58470;SDS011;44258;51.288;12.068;2022-09-09T06:33:25;3.33;;;1.17;;
58470;SDS011;44258;51.288;12.068;2022-09-09T06:35:51;4.28;;;1.33;;
58470;SDS011;44258;51.288;12.068;2022-09-09T06:38:19;4.15;;;1.50;;
58470;SDS011;44258;51.288;12.068;2022-09-09T06:40:50;2.42;;;1.15;;
58470;SDS011;44258;51.288;12.068;2022-09-09T06:43:19;2.90;;;1.33;;
58470;SDS011;44258;51.288;12.068;2022-09-09T06:45:52;4.38;;;1.38;;
58470;SDS011;44258;51.288;12.068;2022-09-09T06:48:19;5.80;;;1.38;;
58470;SDS011;44258;51.288;12.068;2022-09-09T06:50:46;3.17;;;1.30;;
58470;SDS011;44258;51.288;12.068;2022-09-09T06:53:12;2.78;;;1.20;;
58470;SDS011;44258;51.288;12.068;2022-09-09T06:55:44;1.77;;;1.30;;
58470;SDS011;44258;51.288;12.068;2022-09-09T06:58:11;3.38;;;1.30;;
58470;SDS011;44258;51.288;12.068;2022-09-09T07:00:39;2.45;;;1.38;;
58470;SDS011;44258;51.288;12.068;2022-09-09T07:03:05;2.58;;;1.23;;
58470;SDS011;44258;51.288;12.068;2022-09-09T07:05:32;2.72;;;1.48;;
58470;SDS011;44258;51.288;12.068;2022-09-09T07:07:59;3.17;;;1.30;;
58470;SDS011;44258;51.288;12.068;2022-09-09T07:10:25;2.88;;;1.08;;
58470;SDS011;44258;51.288;12.068;2022-09-09T07:12:52;3.90;;;1.20;;
58470;SDS011;44258;51.288;12.068;2022-09-09T07:15:19;4.65;;;1.38;;
58470;SDS011;44258;51.288;12.068;2022-09-09T07:17:49;3.17;;;1.10;;
58470;SDS011;44258;51.288;12.068;2022-09-09T07:20:15;4.28;;;1.42;;
58470;SDS011;44258;51.288;12.068;2022-09-09T07:22:42;3.33;;;1.10;;
58470;SDS011;44258;51.288;12.068;2022-09-09T07:25:08;4.55;;;1.45;;
58470;SDS011;44258;51.288;12.068;2022-09-09T07:27:35;2.05;;;1.25;;
58470;SDS011;44258;51.288;12.068;2022-09-09T07:30:02;3.90;;;1.33;;
58470;SDS011;44258;51.288;12.068;2022-09-09T07:32:29;2.30;;;1.10;;
58470;SDS011;44258;51.288;12.068;2022-09-09T07:34:57;4.28;;;1.13;;
58470;SDS011;44258;51.288;12.068;2022-09-09T07:37:25;2.38;;;1.20;;
58470;SDS011;44258;51.288;12.068;2022-09-09T07:39:51;4.03;;;1.48;;
58470;SDS011;44258;51.288;12.068;2022-09-09T07:42:18;2.95;;;1.38;;
58470;SDS011;44258;51.288;12.068;2022-09-09T07:44:45;2.38;;;1.10;;
58470;SDS011;44258;51.288;12.068;2022-09-09T07:47:11;2.83;;;1.30;;
58470;SDS011;44258;51.288;12.068;2022-09-09T07:49:38;1.83;;;1.10;;
58470;SDS011;44258;51.288;12.068;2022-09-09T07:52:05;2.08;;;1.05;;
58470;SDS011;44258;51.288;12.068;2022-09-09T07:54:32;2.35;;;0.90;;
58470;SDS011;44258;51.288;12.068;2022-09-09T07:56:58;1.92;;;0.90;;
58470;SDS011;44258;51.288;12.068;2022-09-09T07:59:25;2.60;;;0.80;;
58470;SDS011;44258;51.288;12.068;2022-09-09T08:01:55;3.58;;;0.85;;
58470;SDS011;44258;51.288;12.068;2022-09-09T08:04:22;2.88;;;1.00;;
58470;SDS011;44258;51.288;12.068;2022-09-09T08:06:50;1.58;;;0.90;;
58470;SDS011;44258;51.288;12.068;2022-09-09T08:09:20;1.95;;;0.98;;
58470;SDS011;44258;51.288;12.068;2022-09-09T08:11:50;3.22;;;0.93;;
58470;SDS011;44258;51.288;12.068;2022-09-09T08:14:16;1.30;;;1.00;;
58470;SDS011;44258;51.288;12.068;2022-09-09T08:16:43;1.73;;;1.05;;
58470;SDS011;44258;51.288;12.068;2022-09-09T08:19:11;2.03;;;1.17;;
58470;SDS011;44258;51.288;12.068;2022-09-09T08:21:40;2.30;;;1.33;;
58470;SDS011;44258;51.288;12.068;2022-09-09T08:24:08;2.38;;;1.02;;
58470;SDS011;44258;51.288;12.068;2022-09-09T08:26:38;3.30;;;1.30;;
58470;SDS011;44258;51.288;12.068;2022-09-09T08:29:07;1.10;;;0.70;;
58470;SDS011;44258;51.288;12.068;2022-09-09T08:31:35;2.17;;;1.02;;
58470;SDS011;44258;51.288;12.068;2022-09-09T08:34:03;2.47;;;0.90;;
58470;SDS011;44258;51.288;12.068;2022-09-09T08:36:31;1.65;;;1.00;;
58470;SDS011;44258;51.288;12.068;2022-09-09T08:38:59;2.47;;;1.00;;
58470;SDS011;44258;51.288;12.068;2022-09-09T08:44:31;2.88;;;0.98;;
58470;SDS011;44258;51.288;12.068;2022-09-09T08:47:09;3.15;;;0.80;;
58470;SDS011;44258;51.288;12.068;2022-09-09T08:49:55;1.58;;;0.73;;
58470;SDS011;44258;51.288;12.068;2022-09-09T08:52:36;2.30;;;0.93;;
58470;SDS011;44258;51.288;12.068;2022-09-09T08:55:10;2.78;;;1.00;;
58470;SDS011;44258;51.288;12.068;2022-09-09T08:57:48;1.63;;;0.80;;
58470;SDS011;44258;51.288;12.068;2022-09-09T09:00:17;2.05;;;0.85;;
58470;SDS011;44258;51.288;12.068;2022-09-09T09:02:45;3.13;;;0.88;;
58470;SDS011;44258;51.288;12.068;2022-09-09T09:05:23;4.15;;;1.00;;
58470;SDS011;44258;51.288;12.068;2022-09-09T09:07:59;3.33;;;0.93;;
58470;SDS011;44258;51.288;12.068;2022-09-09T09:10:42;2.53;;;0.88;;
58470;SDS011;44258;51.288;12.068;2022-09-09T09:13:16;1.48;;;0.70;;
58470;SDS011;44258;51.288;12.068;2022-09-09T09:15:46;3.88;;;1.10;;
58470;SDS011;44258;51.288;12.068;2022-09-09T09:18:18;0.65;;;0.43;;
58470;SDS011;44258;51.288;12.068;2022-09-09T09:20:47;3.72;;;1.00;;
58470;SDS011;44258;51.288;12.068;2022-09-09T09:23:21;2.10;;;1.10;;
58470;SDS011;44258;51.288;12.068;2022-09-09T09:25:49;1.88;;;1.00;;
58470;SDS011;44258;51.288;12.068;2022-09-09T09:28:20;1.98;;;0.60;;
58470;SDS011;44258;51.288;12.068;2022-09-09T09:30:52;2.30;;;1.08;;
58470;SDS011;44258;51.288;12.068;2022-09-09T09:33:23;1.85;;;0.93;;
58470;SDS011;44258;51.288;12.068;2022-09-09T09:35:54;3.03;;;1.05;;
58470;SDS011;44258;51.288;12.068;2022-09-09T09:38:21;2.95;;;1.00;;
58470;SDS011;44258;51.288;12.068;2022-09-09T09:40:50;1.05;;;0.65;;
58470;SDS011;44258;51.288;12.068;2022-09-09T09:43:20;2.85;;;1.00;;
58470;SDS011;44258;51.288;12.068;2022-09-09T09:45:50;3.35;;;1.10;;
58470;SDS011;44258;51.288;12.068;2022-09-09T09:48:16;2.17;;;1.20;;
58470;SDS011;44258;51.288;12.068;2022-09-09T09:50:46;2.08;;;0.88;;
58470;SDS011;44258;51.288;12.068;2022-09-09T09:53:17;1.80;;;1.10;;
58470;SDS011;44258;51.288;12.068;2022-09-09T09:55:49;0.98;;;0.70;;
58470;SDS011;44258;51.288;12.068;2022-09-09T09:58:20;2.72;;;1.00;;
58470;SDS011;44258;51.288;12.068;2022-09-09T10:00:47;2.50;;;0.88;;
58470;SDS011;44258;51.288;12.068;2022-09-09T10:03:20;3.40;;;0.95;;
58470;SDS011;44258;51.288;12.068;2022-09-09T10:05:49;2.50;;;1.10;;
58470;SDS011;44258;51.288;12.068;2022-09-09T10:08:16;1.65;;;0.88;;
58470;SDS011;44258;51.288;12.068;2022-09-09T10:10:49;0.88;;;0.70;;
58470;SDS011;44258;51.288;12.068;2022-09-09T10:13:25;2.85;;;0.90;;
58470;SDS011;44258;51.288;12.068;2022-09-09T10:16:01;3.30;;;1.10;;
58470;SDS011;44258;51.288;12.068;2022-09-09T10:18:42;2.15;;;1.00;;
58470;SDS011;44258;51.288;12.068;2022-09-09T10:21:25;3.22;;;0.98;;
58470;SDS011;44258;51.288;12.068;2022-09-09T10:24:07;4.72;;;0.90;;
58470;SDS011;44258;51.288;12.068;2022-09-09T10:26:58;3.75;;;0.82;;
58470;SDS011;44258;51.288;12.068;2022-09-09T10:29:47;4.43;;;1.10;;
58470;SDS011;44258;51.288;12.068;2022-09-09T10:32:40;2.00;;;0.80;;
58470;SDS011;44258;51.288;12.068;2022-09-09T10:35:27;2.58;;;0.98;;
58470;SDS011;44258;51.288;12.068;2022-09-09T10:38:02;1.63;;;1.02;;
58470;SDS011;44258;51.288;12.068;2022-09-09T10:40:41;3.30;;;1.20;;
58470;SDS011;44258;51.288;12.068;2022-09-09T10:43:18;3.35;;;1.27;;
58470;SDS011;44258;51.288;12.068;2022-09-09T10:45:57;3.45;;;1.17;;
58470;SDS011;44258;51.288;12.068;2022-09-09T10:48:31;3.13;;;1.20;;
58470;SDS011;44258;51.288;12.068;2022-09-09T10:51:12;2.78;;;0.90;;
58470;SDS011;44258;51.288;12.068;2022-09-09T10:53:51;2.38;;;0.93;;
58470;SDS011;44258;51.288;12.068;2022-09-09T10:56:27;1.85;;;0.95;;
58470;SDS011;44258;51.288;12.068;2022-09-09T10:58:55;1.42;;;0.77;;
58470;SDS011;44258;51.288;12.068;2022-09-09T11:01:28;1.83;;;1.00;;
58470;SDS011;44258;51.288;12.068;2022-09-09T11:04:01;3.28;;;0.93;;
58470;SDS011;44258;51.288;12.068;2022-09-09T11:06:32;2.72;;;0.90;;
58470;SDS011;44258;51.288;12.068;2022-09-09T11:09:03;4.22;;;0.85;;
58470;SDS011;44258;51.288;12.068;2022-09-09T11:11:32;1.23;;;0.82;;
58470;SDS011;44258;51.288;12.068;2022-09-09T11:14:07;3.28;;;0.98;;
58470;SDS011;44258;51.288;12.068;2022-09-09T11:16:44;2.15;;;1.00;;
58470;SDS011;44258;51.288;12.068;2022-09-09T11:19:16;3.33;;;1.20;;
58470;SDS011;44258;51.288;12.068;2022-09-09T11:21:53;2.85;;;0.95;;
58470;SDS011;44258;51.288;12.068;2022-09-09T11:24:23;1.73;;;1.00;;
58470;SDS011;44258;51.288;12.068;2022-09-09T11:26:55;2.85;;;0.88;;
58470;SDS011;44258;51.288;12.068;2022-09-09T11:29:38;3.47;;;1.00;;
58470;SDS011;44258;51.288;12.068;2022-09-09T11:32:27;3.08;;;1.00;;
58470;SDS011;44258;51.288;12.068;2022-09-09T11:35:16;2.30;;;0.80;;
58470;SDS011;44258;51.288;12.068;2022-09-09T11:40:56;2.70;;;0.90;;
58470;SDS011;44258;51.288;12.068;2022-09-09T11:43:27;3.25;;;1.20;;
58470;SDS011;44258;51.288;12.068;2022-09-09T11:45:56;3.00;;;0.93;;
58470;SDS011;44258;51.288;12.068;2022-09-09T11:48:28;3.65;;;0.85;;
58470;SDS011;44258;51.288;12.068;2022-09-09T11:50:59;2.90;;;1.05;;
58470;SDS011;44258;51.288;12.068;2022-09-09T11:53:30;2.25;;;0.82;;
58470;SDS011;44258;51.288;12.068;2022-09-09T11:56:05;3.08;;;0.90;;
58470;SDS011;44258;51.288;12.068;2022-09-09T11:58:35;1.80;;;1.10;;
58470;SDS011;44258;51.288;12.068;2022-09-09T12:01:16;2.08;;;1.17;;
58470;SDS011;44258;51.288;12.068;2022-09-09T12:04:06;2.15;;;0.80;;
58470;SDS011;44258;51.288;12.068;2022-09-09T12:06:43;1.85;;;0.80;;
58470;SDS011;44258;51.288;12.068;2022-09-09T12:09:17;1.38;;;0.68;;
58470;SDS011;44258;51.288;12.068;2022-09-09T12:11:48;2.30;;;0.95;;
58470;SDS011;44258;51.288;12.068;2022-09-09T12:14:22;1.88;;;0.65;;
58470;SDS011;44258;51.288;12.068;2022-09-09T12:17:08;1.58;;;0.52;;
58470;SDS011;44258;51.288;12.068;2022-09-09T12:19:37;1.58;;;0.70;;
58470;SDS011;44258;51.288;12.068;2022-09-09T12:22:04;2.10;;;0.75;;
58470;SDS011;44258;51.288;12.068;2022-09-09T12:24:40;2.72;;;0.70;;
58470;SDS011;44258;51.288;12.068;2022-09-09T12:27:14;0.90;;;0.70;;
58470;SDS011;44258;51.288;12.068;2022-09-09T12:29:47;1.45;;;0.88;;
58470;SDS011;44258;51.288;12.068;2022-09-09T12:32:22;1.70;;;0.70;;
58470;SDS011;44258;51.288;12.068;2022-09-09T12:34:52;1.42;;;0.77;;
58470;SDS011;44258;51.288;12.068;2022-09-09T12:37:24;2.65;;;0.73;;
58470;SDS011;44258;51.288;12.068;2022-09-09T12:39:55;2.55;;;0.73;;
58470;SDS011;44258;51.288;12.068;2022-09-09T12:42:23;0.93;;;0.50;;
58470;SDS011;44258;51.288;12.068;2022-09-09T12:44:50;2.10;;;1.05;;
58470;SDS011;44258;51.288;12.068;2022-09-09T12:47:18;1.08;;;0.55;;
58470;SDS011;44258;51.288;12.068;2022-09-09T12:49:48;2.08;;;0.70;;
58470;SDS011;44258;51.288;12.068;2022-09-09T12:52:19;5.15;;;0.98;;
58470;SDS011;44258;51.288;12.068;2022-09-09T12:54:55;2.40;;;0.60;;
58470;SDS011;44258;51.288;12.068;2022-09-09T12:57:23;0.98;;;0.45;;
58470;SDS011;44258;51.288;12.068;2022-09-09T12:59:51;1.42;;;0.60;;
58470;SDS011;44258;51.288;12.068;2022-09-09T13:02:19;3.03;;;0.57;;
58470;SDS011;44258;51.288;12.068;2022-09-09T13:04:48;1.30;;;0.70;;
58470;SDS011;44258;51.288;12.068;2022-09-09T13:07:16;2.65;;;0.88;;
58470;SDS011;44258;51.288;12.068;2022-09-09T13:09:44;1.15;;;0.70;;
58470;SDS011;44258;51.288;12.068;2022-09-09T13:12:13;2.20;;;0.88;;
58470;SDS011;44258;51.288;12.068;2022-09-09T13:14:43;0.90;;;0.60;;
58470;SDS011;44258;51.288;12.068;2022-09-09T13:17:17;2.90;;;0.80;;
58470;SDS011;44258;51.288;12.068;2022-09-09T13:19:47;2.30;;;0.80;;
58470;SDS011;44258;51.288;12.068;2022-09-09T13:22:21;1.17;;;0.80;;
58470;SDS011;44258;51.288;12.068;2022-09-09T13:25:04;2.05;;;0.80;;
58470;SDS011;44258;51.288;12.068;2022-09-09T13:27:40;1.70;;;0.60;;
58470;SDS011;44258;51.288;12.068;2022-09-09T13:30:19;2.13;;;0.60;;
58470;SDS011;44258;51.288;12.068;2022-09-09T13:32:47;2.03;;;0.80;;
58470;SDS011;44258;51.288;12.068;2022-09-09T13:35:25;1.30;;;0.65;;
58470;SDS011;44258;51.288;12.068;2022-09-09T13:37:53;3.83;;;0.50;;
58470;SDS011;44258;51.288;12.068;2022-09-09T13:40:20;1.70;;;0.60;;
58470;SDS011;44258;51.288;12.068;2022-09-09T13:42:50;2.55;;;0.70;;
58470;SDS011;44258;51.288;12.068;2022-09-09T13:45:19;1.20;;;0.85;;
58470;SDS011;44258;51.288;12.068;2022-09-09T13:47:46;1.35;;;0.70;;
58470;SDS011;44258;51.288;12.068;2022-09-09T13:50:20;0.95;;;0.57;;
58470;SDS011;44258;51.288;12.068;2022-09-09T13:52:48;0.98;;;0.30;;
58470;SDS011;44258;51.288;12.068;2022-09-09T13:55:17;0.60;;;0.40;;
58470;SDS011;44258;51.288;12.068;2022-09-09T13:57:51;0.75;;;0.38;;
58470;SDS011;44258;51.288;12.068;2022-09-09T14:00:19;0.45;;;0.40;;
58470;SDS011;44258;51.288;12.068;2022-09-09T14:02:47;1.33;;;0.60;;
58470;SDS011;44258;51.288;12.068;2022-09-09T14:05:13;1.83;;;0.50;;
58470;SDS011;44258;51.288;12.068;2022-09-09T14:07:41;1.83;;;0.70;;
58470;SDS011;44258;51.288;12.068;2022-09-09T14:10:08;1.52;;;0.70;;
58470;SDS011;44258;51.288;12.068;2022-09-09T14:12:37;1.77;;;0.40;;
58470;SDS011;44258;51.288;12.068;2022-09-09T14:15:05;2.58;;;0.50;;
58470;SDS011;44258;51.288;12.068;2022-09-09T14:17:33;1.08;;;0.50;;
58470;SDS011;44258;51.288;12.068;2022-09-09T14:20:01;1.73;;;0.75;;
58470;SDS011;44258;51.288;12.068;2022-09-09T14:22:28;1.05;;;0.63;;
58470;SDS011;44258;51.288;12.068;2022-09-09T14:24:55;0.63;;;0.47;;
58470;SDS011;44258;51.288;12.068;2022-09-09T14:27:22;1.45;;;0.60;;
58470;SDS011;44258;51.288;12.068;2022-09-09T14:29:52;1.15;;;0.50;;
58470;SDS011;44258;51.288;12.068;2022-09-09T14:32:19;1.80;;;0.57;;
58470;SDS011;44258;51.288;12.068;2022-09-09T14:34:46;1.23;;;0.40;;
58470;SDS011;44258;51.288;12.068;2022-09-09T14:37:14;1.67;;;0.60;;
58470;SDS011;44258;51.288;12.068;2022-09-09T14:39:41;2.28;;;0.68;;
58470;SDS011;44258;51.288;12.068;2022-09-09T14:42:09;1.23;;;0.60;;
58470;SDS011;44258;51.288;12.068;2022-09-09T14:44:36;1.08;;;0.45;;
58470;SDS011;44258;51.288;12.068;2022-09-09T14:47:04;1.20;;;0.45;;
58470;SDS011;44258;51.288;12.068;2022-09-09T14:49:33;1.65;;;0.50;;
58470;SDS011;44258;51.288;12.068;2022-09-09T14:51:59;2.28;;;0.82;;
58470;SDS011;44258;51.288;12.068;2022-09-09T14:54:26;4.40;;;0.77;;
58470;SDS011;44258;51.288;12.068;2022-09-09T14:56:53;1.48;;;0.60;;
58470;SDS011;44258;51.288;12.068;2022-09-09T14:59:19;1.25;;;0.63;;
58470;SDS011;44258;51.288;12.068;2022-09-09T15:01:47;1.67;;;0.50;;
58470;SDS011;44258;51.288;12.068;2022-09-09T15:04:15;1.50;;;0.52;;
58470;SDS011;44258;51.288;12.068;2022-09-09T15:06:42;1.00;;;0.50;;